Terminal Aerodrome Forecast
Issued by NWS

Home | Current Version | Previous Version | Graphics & Text | Print | Product List | Glossary On
Versions: 1 2 3 4 5 6 7 8 9 10 11 12 13 14 15 16 17 18 19
425
FTUS43 KLSX 252320
TAFSUS
TAF
KSUS 252320Z 2600/2624 35006KT P6SM SCT025 SCT050
     FM260900 VRB03KT 4SM BR SCT020 BKN045
     FM261400 05004KT P6SM BKN035=

USA.gov is the U.S. government's official web portal to all federal, state and local government web resources and services.